Knossos Palace — SYQO — position and weather

sailwx.info

Track history (hours):
 
Tides and Currents Weather Stations Pressure Air Temp Water Temp Dewpoint Dewpoint Depression Visibility Wind Speed Wind Dir Waves Ship Positions

Knossos Palace

Last reported at 2015-May-24 14:28 UTC. Time now 2015-May-24 17:27 UTC.
Position N 35°21' E 025°09'.

Length 214 m; beam 26.4 m; draft 7.3 m.

Type: Ship. MMSI: 237641000.

Date/timePositionNaut miles runAvg speedWind from/ knotsBaromVisibWave heightAir tempDewpointWater temp
2015-May-24 14:28N 35°21' E 025°09'0 0.0
2015-May-24 04:25N 35°21' E 025°09'2 1.9
2015-May-24 03:28N 35°22' E 025°09'1618.0
2015-May-24 02:33N 35°36' E 024°59'1918.6
2015-May-24 01:33N 35°52' E 024°47'1918.5
2015-May-24 00:32N 36°08' E 024°35'1818.3
2015-May-23 23:33N 36°24' E 024°23'1818.1
2015-May-23 22:33N 36°40' E 024°13'5618.5
2015-May-23 19:31N 37°32' E 023°46'1819.1
2015-May-23 18:33N 37°49' E 023°38'8 7.4
2015-May-23 17:32N 37°57' E 023°38'0 0.0
2015-May-23 16:32N 37°57' E 023°38'0 0.0
2015-May-23 15:32N 37°57' E 023°38'0 0.0
2015-May-23 14:32N 37°57' E 023°38'0 0.0
2015-May-23 13:32N 37°57' E 023°38'0 0.0
2015-May-23 12:32N 37°57' E 023°38'0 0.0
2015-May-23 11:32N 37°57' E 023°38'0 0.0
2015-May-23 10:32N 37°57' E 023°38'0 0.0
2015-May-23 09:32N 37°57' E 023°38'0 0.0
2015-May-23 08:32N 37°57' E 023°38'0 0.0
2015-May-23 07:32N 37°57' E 023°38'0 0.0
2015-May-23 06:32N 37°57' E 023°38'0 0.0
2015-May-23 05:32N 37°57' E 023°38'0 0.0
2015-May-23 04:32N 37°57' E 023°38'1 0.8
2015-May-23 03:34N 37°56' E 023°37'1616.0
2015-May-23 02:33N 37°42' E 023°45'1918.8
2015-May-23 01:33N 37°24' E 023°53'2219.7
2015-May-23 00:27N 37°03' E 024°03'1819.8
2015-May-22 23:32N 36°47' E 024°11'2120.3
2015-May-22 22:29N 36°27' E 024°22'1920.2
2015-May-22 21:33N 36°11' E 024°35'2020.1
2015-May-22 20:33N 35°53' E 024°47'2019.7
2015-May-22 19:33N 35°37' E 024°59'1817.6
2015-May-22 18:33N 35°21' E 025°09'0 0.1
2015-May-22 17:33N 35°21' E 025°09'0 0.0
2015-May-22 16:33N 35°21' E 025°09'0 0.0
2015-May-22 15:32N 35°21' E 025°09'0 0.0
2015-May-22 14:33N 35°21' E 025°09'0 0.0
2015-May-22 13:33N 35°21' E 025°09'0 0.0
2015-May-22 12:32N 35°21' E 025°09'0 0.0
2015-May-22 11:32N 35°21' E 025°09'0 0.0
2015-May-22 10:33N 35°21' E 025°09'0 0.0
2015-May-22 09:33N 35°21' E 025°09'0 0.0
2015-May-22 08:33N 35°21' E 025°09'0 0.0
2015-May-22 07:33N 35°21' E 025°09'0 0.0
2015-May-22 06:33N 35°21' E 025°09'0 0.0
2015-May-22 05:32N 35°21' E 025°09'0 0.0
2015-May-22 04:33N 35°21' E 025°09'0 0.1
2015-May-22 03:32N 35°21' E 025°09'1616.2
2015-May-22 02:33N 35°35' E 025°00'1918.8
2015-May-22 01:33N 35°51' E 024°48'2019.3
2015-May-22 00:32N 36°08' E 024°36'1919.4
2015-May-21 23:33N 36°25' E 024°24'4019.3
2015-May-21 21:30N 37°00' E 024°02'1919.4
2015-May-21 20:32N 37°18' E 023°54'1919.5
2015-May-21 19:33N 37°36' E 023°45'1919.3
2015-May-21 18:33N 37°54' E 023°38'3 2.6
2015-May-21 17:33N 37°57' E 023°38'0 0.0
2015-May-21 16:33N 37°57' E 023°38'0 0.0
2015-May-21 15:33N 37°57' E 023°38'0 0.0
2015-May-21 14:33N 37°57' E 023°38'0 0.0
2015-May-21 13:33N 37°57' E 023°38'0 0.0
2015-May-21 12:33N 37°57' E 023°38'0 0.0
2015-May-21 11:33N 37°57' E 023°38'0 0.0
2015-May-21 10:33N 37°57' E 023°38'0 0.0
2015-May-21 09:33N 37°57' E 023°38'0 0.0
2015-May-21 08:33N 37°57' E 023°38'0 0.0
2015-May-21 07:33N 37°57' E 023°38'0 0.0
2015-May-21 06:33N 37°57' E 023°38'0 0.0
2015-May-21 05:33N 37°57' E 023°38'0 0.0
2015-May-21 04:33N 37°57' E 023°38'2 1.5
2015-May-21 03:33N 37°55' E 023°37'1919.0
2015-May-21 02:33N 37°38' E 023°47'8220.4
2015-May-20 22:33N 36°22' E 024°26'1919.3
2015-May-20 21:33N 36°06' E 024°39'1918.6
2015-May-20 20:33N 35°50' E 024°51'2018.9
2015-May-20 19:30N 35°33' E 025°03'13 3.8
2015-May-20 16:05N 35°21' E 025°09'16 1.2
2015-May-20 02:26N 35°35' E 025°01'1719.0
2015-May-20 01:32N 35°50' E 024°50'1918.7
2015-May-20 00:33N 36°06' E 024°38'9719.2
2015-May-19 19:31N 37°33' E 023°46'1919.5
2015-May-19 18:33N 37°50' E 023°36'7 6.8
2015-May-19 17:33N 37°57' E 023°38'0 0.0
2015-May-19 16:31N 37°57' E 023°38'0 0.0
2015-May-19 15:28N 37°57' E 023°38'0 0.0
2015-May-19 14:28N 37°57' E 023°38'0 0.0
2015-May-19 13:31N 37°57' E 023°38'0 0.0
2015-May-19 12:31N 37°57' E 023°38'0 0.0
2015-May-19 11:31N 37°57' E 023°38'0 0.0
2015-May-19 10:31N 37°57' E 023°38'0 0.0
2015-May-19 09:31N 37°57' E 023°38'0 0.0
2015-May-19 08:31N 37°57' E 023°38'0 0.0
2015-May-19 07:31N 37°57' E 023°38'0 0.0
2015-May-19 06:31N 37°57' E 023°38'0 0.0
2015-May-19 05:31N 37°57' E 023°38'0 0.0
2015-May-19 04:28N 37°57' E 023°38'0 0.2
2015-May-19 03:33N 37°56' E 023°38'1515.4
2015-May-19 02:33N 37°42' E 023°45'2020.0
2015-May-19 01:33N 37°23' E 023°54'2320.3
2015-May-19 00:24N 37°01' E 024°04'1720.3
2015-May-18 23:33N 36°45' E 024°12'2120.7
2015-May-18 22:34N 36°27' E 024°23'2120.8
2015-May-18 21:33N 36°09' E 024°36'2020.4
2015-May-18 20:33N 35°51' E 024°48'2020.3
2015-May-18 19:33N 35°33' E 025°01'1413.9
2015-May-18 18:32N 35°21' E 025°09'0 0.0
2015-May-18 17:32N 35°21' E 025°09'0 0.0
2015-May-18 16:32N 35°21' E 025°09'0 0.0
2015-May-18 15:31N 35°21' E 025°09'0 0.0
2015-May-18 14:32N 35°21' E 025°09'0 0.0
2015-May-18 13:32N 35°21' E 025°09'0 0.0
2015-May-18 12:32N 35°21' E 025°09'0 0.0
2015-May-18 11:32N 35°21' E 025°09'0 0.0
2015-May-18 10:32N 35°21' E 025°09'0 0.0
2015-May-18 09:31N 35°21' E 025°09'0 0.0
2015-May-18 08:32N 35°21' E 025°09'0 0.0
2015-May-18 07:31N 35°21' E 025°09'0 0.0
2015-May-18 04:32N 35°21' E 025°09'0 0.1
2015-May-18 03:31N 35°21' E 025°09'1616.8
2015-May-18 02:33N 35°35' E 024°60'2019.5
2015-May-18 01:33N 35°52' E 024°47'1919.2
2015-May-18 00:33N 36°09' E 024°36'2318.7
2015-May-17 23:20N 36°28' E 024°22'1418.4
2015-May-17 22:34N 36°41' E 024°13'2418.5
2015-May-17 21:17N 37°03' E 024°02'1518.6
2015-May-17 20:28N 37°17' E 023°54'1718.3
2015-May-17 19:33N 37°32' E 023°46'1818.1
2015-May-17 18:33N 37°49' E 023°38'8 7.7
2015-May-17 17:33N 37°57' E 023°38'0 0.0
2015-May-17 16:29N 37°57' E 023°38'0 0.0
2015-May-17 15:32N 37°57' E 023°38'0 0.0
2015-May-17 14:32N 37°57' E 023°38'0 0.0
2015-May-17 13:32N 37°57' E 023°38'0 0.0
2015-May-17 12:26N 37°57' E 023°38'0 0.0
2015-May-17 11:32N 37°57' E 023°38'0 0.0
2015-May-17 10:32N 37°57' E 023°38'0 0.0
2015-May-17 09:34N 37°57' E 023°38'0 0.0
2015-May-17 08:34N 37°57' E 023°38'0 0.0
2015-May-17 07:33N 37°57' E 023°38'0 0.0
2015-May-17 06:33N 37°57' E 023°38'0 0.0
2015-May-17 05:33N 37°57' E 023°38'0 0.0
2015-May-17 04:34N 37°57' E 023°38'2 2.5
2015-May-17 03:33N 37°54' E 023°38'1918.7
2015-May-17 02:33N 37°37' E 023°47'2519.1
2015-May-17 01:14N 37°13' E 023°58'1319.3
2015-May-17 00:33N 37°01' E 024°04'1919.5
2015-May-16 23:33N 36°43' E 024°13'2020.2
2015-May-16 22:33N 36°25' E 024°24'2020.0
2015-May-16 21:33N 36°07' E 024°37'2019.5
2015-May-16 20:33N 35°50' E 024°49'1919.2
2015-May-16 19:33N 35°34' E 025°01'1514.4
2015-May-16 18:32N 35°21' E 025°09'0 0.0
2015-May-16 17:33N 35°21' E 025°09'0 0.0
2015-May-16 16:29N 35°21' E 025°09'0 0.0
2015-May-16 15:32N 35°21' E 025°09'0 0.0
2015-May-16 14:33N 35°21' E 025°09'0 0.0
2015-May-16 13:30N 35°21' E 025°09'0 0.0
2015-May-16 12:33N 35°21' E 025°09'0 0.0
2015-May-16 11:32N 35°21' E 025°09'0 0.0
2015-May-16 10:32N 35°21' E 025°09'0 0.0
2015-May-16 09:33N 35°21' E 025°09'0 0.0
2015-May-16 08:32N 35°21' E 025°09'0 0.0
2015-May-16 07:30N 35°21' E 025°09'0 0.0
2015-May-16 06:30N 35°21' E 025°09'0 0.0
2015-May-16 05:33N 35°21' E 025°09'0 0.0
2015-May-16 04:33N 35°21' E 025°09'0 0.1
2015-May-16 03:32N 35°21' E 025°09'1616.4
2015-May-16 02:33N 35°35' E 024°60'1918.8
2015-May-16 01:33N 35°51' E 024°48'1918.8
2015-May-16 00:33N 36°07' E 024°36'1918.9
2015-May-15 23:33N 36°24' E 024°24'2618.5
2015-May-15 22:09N 36°47' E 024°10'3718.5
2015-May-15 20:07N 37°22' E 023°52'1018.7
2015-May-15 19:34N 37°31' E 023°47'1919.0
2015-May-15 18:33N 37°49' E 023°38'8 7.6
2015-May-15 17:33N 37°57' E 023°38'0 0.0
2015-May-15 16:33N 37°57' E 023°38'0 0.0
2015-May-15 15:33N 37°57' E 023°38'0 0.0
2015-May-15 14:33N 37°57' E 023°38'0 0.0
2015-May-15 13:30N 37°57' E 023°38'0 0.0
2015-May-15 12:33N 37°57' E 023°38'0 0.0
2015-May-15 11:33N 37°57' E 023°38'0 0.0
2015-May-15 10:33N 37°57' E 023°38'0 0.0
2015-May-15 09:30N 37°57' E 023°38'0 0.0
2015-May-15 08:33N 37°57' E 023°38'0 0.0
2015-May-15 07:33N 37°57' E 023°38'0 0.0
2015-May-15 06:33N 37°57' E 023°38'0 0.0
2015-May-15 05:33N 37°57' E 023°38'0 0.0
2015-May-15 04:21N 37°57' E 023°38'0 0.2
2015-May-15 03:33N 37°57' E 023°38'1716.9
2015-May-15 02:34N 37°41' E 023°46'2020.4
2015-May-15 01:33N 37°22' E 023°54'4420.2
2015-May-14 23:23N 36°40' E 024°13'1819.9
2015-May-14 22:28N 36°24' E 024°24'1919.1
2015-May-14 21:30N 36°08' E 024°36'1818.9
2015-May-14 20:34N 35°53' E 024°47'1918.6
2015-May-14 19:33N 35°37' E 024°59'1815.8
2015-May-14 18:25N 35°21' E 025°09'0 0.0
2015-May-14 17:29N 35°21' E 025°09'0 0.0
2015-May-14 16:29N 35°21' E 025°09'0 0.0
2015-May-14 15:26N 35°21' E 025°09'0 0.0
2015-May-14 14:32N 35°21' E 025°09'  
Track history (hours):
 
Tides and Currents Weather Stations Pressure Air Temp Water Temp Dewpoint Dewpoint Depression Visibility Wind Speed Wind Dir Waves Ship Positions

Knossos Palace

Last reported at 2015-May-24 14:28 UTC. Time now 2015-May-24 17:27 UTC.
Position N 35°21' E 025°09'.

Length 214 m; beam 26.4 m; draft 7.3 m.

Type: Ship. MMSI: 237641000.

Date/timePositionNaut miles runAvg speedWind from/ knotsBaromVisibWave heightAir tempDewpointWater temp
2015-May-24 14:28N 35°21' E 025°09'0 0.0
2015-May-24 04:25N 35°21' E 025°09'2 1.9
2015-May-24 03:28N 35°22' E 025°09'1618.0
2015-May-24 02:33N 35°36' E 024°59'1918.6
2015-May-24 01:33N 35°52' E 024°47'1918.5
2015-May-24 00:32N 36°08' E 024°35'1818.3
2015-May-23 23:33N 36°24' E 024°23'1818.1
2015-May-23 22:33N 36°40' E 024°13'5618.5
2015-May-23 19:31N 37°32' E 023°46'1819.1
2015-May-23 18:33N 37°49' E 023°38'8 7.4
2015-May-23 17:32N 37°57' E 023°38'0 0.0
2015-May-23 16:32N 37°57' E 023°38'0 0.0
2015-May-23 15:32N 37°57' E 023°38'0 0.0
2015-May-23 14:32N 37°57' E 023°38'0 0.0
2015-May-23 13:32N 37°57' E 023°38'0 0.0
2015-May-23 12:32N 37°57' E 023°38'0 0.0
2015-May-23 11:32N 37°57' E 023°38'0 0.0
2015-May-23 10:32N 37°57' E 023°38'0 0.0
2015-May-23 09:32N 37°57' E 023°38'0 0.0
2015-May-23 08:32N 37°57' E 023°38'0 0.0
2015-May-23 07:32N 37°57' E 023°38'0 0.0
2015-May-23 06:32N 37°57' E 023°38'0 0.0
2015-May-23 05:32N 37°57' E 023°38'0 0.0
2015-May-23 04:32N 37°57' E 023°38'1 0.8
2015-May-23 03:34N 37°56' E 023°37'1616.0
2015-May-23 02:33N 37°42' E 023°45'1918.8
2015-May-23 01:33N 37°24' E 023°53'2219.7
2015-May-23 00:27N 37°03' E 024°03'1819.8
2015-May-22 23:32N 36°47' E 024°11'2120.3
2015-May-22 22:29N 36°27' E 024°22'1920.2
2015-May-22 21:33N 36°11' E 024°35'2020.1
2015-May-22 20:33N 35°53' E 024°47'2019.7
2015-May-22 19:33N 35°37' E 024°59'1817.6
2015-May-22 18:33N 35°21' E 025°09'0 0.1
2015-May-22 17:33N 35°21' E 025°09'0 0.0
2015-May-22 16:33N 35°21' E 025°09'0 0.0
2015-May-22 15:32N 35°21' E 025°09'0 0.0
2015-May-22 14:33N 35°21' E 025°09'0 0.0
2015-May-22 13:33N 35°21' E 025°09'0 0.0
2015-May-22 12:32N 35°21' E 025°09'0 0.0
2015-May-22 11:32N 35°21' E 025°09'0 0.0
2015-May-22 10:33N 35°21' E 025°09'0 0.0
2015-May-22 09:33N 35°21' E 025°09'0 0.0
2015-May-22 08:33N 35°21' E 025°09'0 0.0
2015-May-22 07:33N 35°21' E 025°09'0 0.0
2015-May-22 06:33N 35°21' E 025°09'0 0.0
2015-May-22 05:32N 35°21' E 025°09'0 0.0
2015-May-22 04:33N 35°21' E 025°09'0 0.1
2015-May-22 03:32N 35°21' E 025°09'1616.2
2015-May-22 02:33N 35°35' E 025°00'1918.8
2015-May-22 01:33N 35°51' E 024°48'2019.3
2015-May-22 00:32N 36°08' E 024°36'1919.4
2015-May-21 23:33N 36°25' E 024°24'4019.3
2015-May-21 21:30N 37°00' E 024°02'1919.4
2015-May-21 20:32N 37°18' E 023°54'1919.5
2015-May-21 19:33N 37°36' E 023°45'1919.3
2015-May-21 18:33N 37°54' E 023°38'3 2.6
2015-May-21 17:33N 37°57' E 023°38'0 0.0
2015-May-21 16:33N 37°57' E 023°38'0 0.0
2015-May-21 15:33N 37°57' E 023°38'0 0.0
2015-May-21 14:33N 37°57' E 023°38'0 0.0
2015-May-21 13:33N 37°57' E 023°38'0 0.0
2015-May-21 12:33N 37°57' E 023°38'0 0.0
2015-May-21 11:33N 37°57' E 023°38'0 0.0
2015-May-21 10:33N 37°57' E 023°38'0 0.0
2015-May-21 09:33N 37°57' E 023°38'0 0.0
2015-May-21 08:33N 37°57' E 023°38'0 0.0
2015-May-21 07:33N 37°57' E 023°38'0 0.0
2015-May-21 06:33N 37°57' E 023°38'0 0.0
2015-May-21 05:33N 37°57' E 023°38'0 0.0
2015-May-21 04:33N 37°57' E 023°38'2 1.5
2015-May-21 03:33N 37°55' E 023°37'1919.0
2015-May-21 02:33N 37°38' E 023°47'8220.4
2015-May-20 22:33N 36°22' E 024°26'1919.3
2015-May-20 21:33N 36°06' E 024°39'1918.6
2015-May-20 20:33N 35°50' E 024°51'2018.9
2015-May-20 19:30N 35°33' E 025°03'13 3.8
2015-May-20 16:05N 35°21' E 025°09'16 1.2
2015-May-20 02:26N 35°35' E 025°01'1719.0
2015-May-20 01:32N 35°50' E 024°50'1918.7
2015-May-20 00:33N 36°06' E 024°38'9719.2
2015-May-19 19:31N 37°33' E 023°46'1919.5
2015-May-19 18:33N 37°50' E 023°36'7 6.8
2015-May-19 17:33N 37°57' E 023°38'0 0.0
2015-May-19 16:31N 37°57' E 023°38'0 0.0
2015-May-19 15:28N 37°57' E 023°38'0 0.0
2015-May-19 14:28N 37°57' E 023°38'0 0.0
2015-May-19 13:31N 37°57' E 023°38'0 0.0
2015-May-19 12:31N 37°57' E 023°38'0 0.0
2015-May-19 11:31N 37°57' E 023°38'0 0.0
2015-May-19 10:31N 37°57' E 023°38'0 0.0
2015-May-19 09:31N 37°57' E 023°38'0 0.0
2015-May-19 08:31N 37°57' E 023°38'0 0.0
2015-May-19 07:31N 37°57' E 023°38'0 0.0
2015-May-19 06:31N 37°57' E 023°38'0 0.0
2015-May-19 05:31N 37°57' E 023°38'0 0.0
2015-May-19 04:28N 37°57' E 023°38'0 0.2
2015-May-19 03:33N 37°56' E 023°38'1515.4
2015-May-19 02:33N 37°42' E 023°45'2020.0
2015-May-19 01:33N 37°23' E 023°54'2320.3
2015-May-19 00:24N 37°01' E 024°04'1720.3
2015-May-18 23:33N 36°45' E 024°12'2120.7
2015-May-18 22:34N 36°27' E 024°23'2120.8
2015-May-18 21:33N 36°09' E 024°36'2020.4
2015-May-18 20:33N 35°51' E 024°48'2020.3
2015-May-18 19:33N 35°33' E 025°01'1413.9
2015-May-18 18:32N 35°21' E 025°09'0 0.0
2015-May-18 17:32N 35°21' E 025°09'0 0.0
2015-May-18 16:32N 35°21' E 025°09'0 0.0
2015-May-18 15:31N 35°21' E 025°09'0 0.0
2015-May-18 14:32N 35°21' E 025°09'0 0.0
2015-May-18 13:32N 35°21' E 025°09'0 0.0
2015-May-18 12:32N 35°21' E 025°09'0 0.0
2015-May-18 11:32N 35°21' E 025°09'0 0.0
2015-May-18 10:32N 35°21' E 025°09'0 0.0
2015-May-18 09:31N 35°21' E 025°09'0 0.0
2015-May-18 08:32N 35°21' E 025°09'0 0.0
2015-May-18 07:31N 35°21' E 025°09'0 0.0
2015-May-18 04:32N 35°21' E 025°09'0 0.1
2015-May-18 03:31N 35°21' E 025°09'1616.8
2015-May-18 02:33N 35°35' E 024°60'2019.5
2015-May-18 01:33N 35°52' E 024°47'1919.2
2015-May-18 00:33N 36°09' E 024°36'2318.7
2015-May-17 23:20N 36°28' E 024°22'1418.4
2015-May-17 22:34N 36°41' E 024°13'2418.5
2015-May-17 21:17N 37°03' E 024°02'1518.6
2015-May-17 20:28N 37°17' E 023°54'1718.3
2015-May-17 19:33N 37°32' E 023°46'1818.1
2015-May-17 18:33N 37°49' E 023°38'8 7.7
2015-May-17 17:33N 37°57' E 023°38'0 0.0
2015-May-17 16:29N 37°57' E 023°38'0 0.0
2015-May-17 15:32N 37°57' E 023°38'0 0.0
2015-May-17 14:32N 37°57' E 023°38'0 0.0
2015-May-17 13:32N 37°57' E 023°38'0 0.0
2015-May-17 12:26N 37°57' E 023°38'0 0.0
2015-May-17 11:32N 37°57' E 023°38'0 0.0
2015-May-17 10:32N 37°57' E 023°38'0 0.0
2015-May-17 09:34N 37°57' E 023°38'0 0.0
2015-May-17 08:34N 37°57' E 023°38'0 0.0
2015-May-17 07:33N 37°57' E 023°38'0 0.0
2015-May-17 06:33N 37°57' E 023°38'0 0.0
2015-May-17 05:33N 37°57' E 023°38'0 0.0
2015-May-17 04:34N 37°57' E 023°38'2 2.5
2015-May-17 03:33N 37°54' E 023°38'1918.7
2015-May-17 02:33N 37°37' E 023°47'2519.1
2015-May-17 01:14N 37°13' E 023°58'1319.3
2015-May-17 00:33N 37°01' E 024°04'1919.5
2015-May-16 23:33N 36°43' E 024°13'2020.2
2015-May-16 22:33N 36°25' E 024°24'2020.0
2015-May-16 21:33N 36°07' E 024°37'2019.5
2015-May-16 20:33N 35°50' E 024°49'1919.2
2015-May-16 19:33N 35°34' E 025°01'1514.4
2015-May-16 18:32N 35°21' E 025°09'0 0.0
2015-May-16 17:33N 35°21' E 025°09'0 0.0
2015-May-16 16:29N 35°21' E 025°09'0 0.0
2015-May-16 15:32N 35°21' E 025°09'0 0.0
2015-May-16 14:33N 35°21' E 025°09'0 0.0
2015-May-16 13:30N 35°21' E 025°09'0 0.0
2015-May-16 12:33N 35°21' E 025°09'0 0.0
2015-May-16 11:32N 35°21' E 025°09'0 0.0
2015-May-16 10:32N 35°21' E 025°09'0 0.0
2015-May-16 09:33N 35°21' E 025°09'0 0.0
2015-May-16 08:32N 35°21' E 025°09'0 0.0
2015-May-16 07:30N 35°21' E 025°09'0 0.0
2015-May-16 06:30N 35°21' E 025°09'0 0.0
2015-May-16 05:33N 35°21' E 025°09'0 0.0
2015-May-16 04:33N 35°21' E 025°09'0 0.1
2015-May-16 03:32N 35°21' E 025°09'1616.4
2015-May-16 02:33N 35°35' E 024°60'1918.8
2015-May-16 01:33N 35°51' E 024°48'1918.8
2015-May-16 00:33N 36°07' E 024°36'1918.9
2015-May-15 23:33N 36°24' E 024°24'2618.5
2015-May-15 22:09N 36°47' E 024°10'3718.5
2015-May-15 20:07N 37°22' E 023°52'1018.7
2015-May-15 19:34N 37°31' E 023°47'1919.0
2015-May-15 18:33N 37°49' E 023°38'8 7.6
2015-May-15 17:33N 37°57' E 023°38'0 0.0
2015-May-15 16:33N 37°57' E 023°38'0 0.0
2015-May-15 15:33N 37°57' E 023°38'0 0.0
2015-May-15 14:33N 37°57' E 023°38'0 0.0
2015-May-15 13:30N 37°57' E 023°38'0 0.0
2015-May-15 12:33N 37°57' E 023°38'0 0.0
2015-May-15 11:33N 37°57' E 023°38'0 0.0
2015-May-15 10:33N 37°57' E 023°38'0 0.0
2015-May-15 09:30N 37°57' E 023°38'0 0.0
2015-May-15 08:33N 37°57' E 023°38'0 0.0
2015-May-15 07:33N 37°57' E 023°38'0 0.0
2015-May-15 06:33N 37°57' E 023°38'0 0.0
2015-May-15 05:33N 37°57' E 023°38'0 0.0
2015-May-15 04:21N 37°57' E 023°38'0 0.2
2015-May-15 03:33N 37°57' E 023°38'1716.9
2015-May-15 02:34N 37°41' E 023°46'2020.4
2015-May-15 01:33N 37°22' E 023°54'4420.2
2015-May-14 23:23N 36°40' E 024°13'1819.9
2015-May-14 22:28N 36°24' E 024°24'1919.1
2015-May-14 21:30N 36°08' E 024°36'1818.9
2015-May-14 20:34N 35°53' E 024°47'1918.6
2015-May-14 19:33N 35°37' E 024°59'1815.8
2015-May-14 18:25N 35°21' E 025°09'0 0.0
2015-May-14 17:29N 35°21' E 025°09'0 0.0
2015-May-14 16:29N 35°21' E 025°09'0 0.0
2015-May-14 15:26N 35°21' E 025°09'0 0.0
2015-May-14 14:32N 35°21' E 025°09'  

Dump ship's entire track history